Time;durP1;ratioP1;P1;durP2;ratioP2;P2;SDS_P1;SDS_P2;PMS_P1;PMS_P2;Temp;Humidity;BMP_temperature;BMP_pressure;BME280_temperature;BME280_humidity;BME280_pressure;Samples;Min_cycle;Max_cycle;Signal;HPM_P1;HPM_P2
2021/05/06 00:10:56;;;;;;;4.50;2.45;;;5.70;99.90;;;;;;5100993;28;20073;-62
2021/05/06 00:30:05;;;;;;;6.70;2.60;;;5.50;99.90;;;;;;5104394;28;20084;-64
2021/05/06 00:32:33;;;;;;;6.43;2.78;;;5.40;99.90;;;;;;5103346;28;20035;-64
2021/05/06 00:34:59;;;;;;;6.57;2.85;;;5.40;99.90;;;;;;5103444;28;20035;-64
2021/05/06 00:37:24;;;;;;;4.85;2.55;;;5.40;99.90;;;;;;5108775;27;20084;-62
2021/05/06 00:40:01;;;;;;;4.75;2.97;;;5.40;99.90;;;;;;5103086;28;20119;-62
2021/05/06 01:01:19;;;;;;;8.93;3.05;;;5.30;99.90;;;;;;5105686;28;20077;-65
2021/05/06 01:04:16;;;;;;;5.50;2.75;;;5.30;99.90;;;;;;5105660;28;20040;-65
2021/05/06 01:06:33;;;;;;;4.55;2.75;;;5.30;99.90;;;;;;5106311;28;20093;-64
2021/05/06 01:09:06;;;;;;;6.15;3.25;;;5.30;99.90;;;;;;5103652;28;20036;-65
2021/05/06 01:14:08;;;;;;;4.95;2.60;;;5.30;99.90;;;;;;5104178;27;20040;-64
2021/05/06 01:16:34;;;;;;;4.00;2.58;;;5.30;99.90;;;;;;5101737;28;20061;-65
2021/05/06 01:19:00;;;;;;;5.93;3.50;;;5.30;99.90;;;;;;5106747;28;20040;-65
2021/05/06 01:21:26;;;;;;;7.15;3.42;;;5.30;99.90;;;;;;5103608;27;20096;-62
2021/05/06 01:23:53;;;;;;;4.25;2.90;;;5.30;99.90;;;;;;5102940;28;20505;-65
2021/05/06 01:26:30;;;;;;;8.10;2.80;;;5.30;99.90;;;;;;5105447;28;20112;-65
2021/05/06 01:28:59;;;;;;;4.93;3.15;;;5.30;99.90;;;;;;5111045;28;20129;-65
2021/05/06 01:31:28;;;;;;;5.53;3.22;;;5.30;99.90;;;;;;5101979;28;20085;-64
2021/05/06 01:34:11;;;;;;;6.22;3.25;;;5.30;99.90;;;;;;5103428;28;20047;-65
2021/05/06 01:36:42;;;;;;;5.70;3.25;;;5.30;99.90;;;;;;5105916;27;20047;-63
2021/05/06 01:46:52;;;;;;;6.95;3.72;;;5.30;99.90;;;;;;5102348;28;20924;-65
2021/05/06 01:57:37;;;;;;;6.97;3.90;;;5.30;99.90;;;;;;5103329;28;20067;-62
2021/05/06 02:00:13;;;;;;;7.03;3.72;;;5.30;99.90;;;;;;5103121;28;20114;-65
2021/05/06 02:02:39;;;;;;;6.63;3.70;;;5.30;99.90;;;;;;5104978;27;20047;-63
2021/05/06 02:05:05;;;;;;;7.97;3.75;;;5.20;99.90;;;;;;5102470;28;20055;-65
2021/05/06 02:07:32;;;;;;;9.50;4.63;;;5.20;99.90;;;;;;5110227;27;20039;-64
2021/05/06 02:09:58;;;;;;;6.13;3.10;;;5.10;99.90;;;;;;5102715;28;20036;-60
2021/05/06 02:12:23;;;;;;;7.07;4.32;;;5.00;99.90;;;;;;5103342;28;20063;-65
2021/05/06 02:15:00;;;;;;;6.10;4.05;;;5.00;99.90;;;;;;5102427;28;20043;-65
2021/05/06 02:17:25;;;;;;;7.60;4.22;;;4.90;99.90;;;;;;5103875;28;20028;-62
2021/05/06 02:19:51;;;;;;;6.97;4.18;;;4.80;99.90;;;;;;5104015;28;20485;-64
2021/05/06 02:22:18;;;;;;;9.40;4.63;;;4.70;99.90;;;;;;5102011;28;20448;-65
2021/05/06 02:24:44;;;;;;;7.45;4.47;;;4.70;99.90;;;;;;5104031;28;20024;-65
2021/05/06 02:27:10;;;;;;;9.68;4.90;;;4.60;99.90;;;;;;5108300;28;20100;-63
2021/05/06 02:29:36;;;;;;;11.32;5.97;;;4.60;99.90;;;;;;5104303;28;20019;-63
2021/05/06 02:32:02;;;;;;;10.27;5.30;;;4.50;99.90;;;;;;5102064;28;20509;-65
2021/05/06 02:34:27;;;;;;;8.55;4.65;;;4.50;99.90;;;;;;5103082;28;20024;-64
2021/05/06 02:36:53;;;;;;;9.93;5.00;;;4.40;99.90;;;;;;5104698;27;20055;-62
2021/05/06 02:39:18;;;;;;;10.82;4.65;;;4.40;99.90;;;;;;5109009;27;20039;-63
2021/05/06 02:41:44;;;;;;;10.20;5.32;;;4.40;99.90;;;;;;5100122;28;20028;-61
2021/05/06 02:44:10;;;;;;;8.82;5.13;;;4.30;99.90;;;;;;5104973;28;20039;-65
2021/05/06 02:46:35;;;;;;;8.80;4.90;;;4.30;99.90;;;;;;5101763;28;20020;-64
2021/05/06 02:49:01;;;;;;;8.73;5.30;;;4.30;99.90;;;;;;5102602;28;20036;-65
2021/05/06 02:51:34;;;;;;;11.85;5.20;;;4.20;99.90;;;;;;5103942;28;20076;-65
2021/05/06 02:54:00;;;;;;;13.77;5.65;;;4.20;99.90;;;;;;5106796;28;20043;-65
2021/05/06 02:56:38;;;;;;;8.18;4.85;;;4.20;99.90;;;;;;5105436;28;20024;-63
2021/05/06 03:04:32;;;;;;;10.40;5.38;;;4.10;99.90;;;;;;5105578;28;20039;-64
2021/05/06 03:07:01;;;;;;;11.15;5.38;;;4.10;99.90;;;;;;5102311;28;20040;-65
2021/05/06 03:09:36;;;;;;;10.68;5.60;;;4.10;99.90;;;;;;5109713;28;20035;-63
2021/05/06 03:23:11;;;;;;;10.35;5.63;;;4.00;99.90;;;;;;5103994;28;20077;-65
2021/05/06 03:25:19;;;;;;;10.25;5.90;;;4.00;99.90;;;;;;5094377;28;20043;-62
2021/05/06 03:27:51;;;;;;;7.60;4.63;;;3.90;99.90;;;;;;5103695;28;20019;-65
2021/05/06 03:49:26;;;;;;;8.45;5.40;;;3.80;99.90;;;;;;5104060;28;20077;-64
2021/05/06 04:21:27;;;;;;;13.10;7.20;;;3.80;99.90;;;;;;5103229;28;20042;-64
2021/05/06 04:27:11;;;;;;;15.10;7.10;;;4.00;99.90;;;;;;5104344;28;20107;-63
2021/05/06 04:37:48;;;;;;;13.23;7.30;;;4.20;99.90;;;;;;5108271;27;20161;-64
2021/05/06 04:46:13;;;;;;;;;;;4.40;99.90;;;;;;5107392;27;20042;-64
2021/05/06 04:54:23;;;;;;;12.27;6.97;;;4.40;99.90;;;;;;5106095;28;20039;-65
2021/05/06 04:57:38;;;;;;;11.70;7.00;;;4.50;99.90;;;;;;5105214;28;20088;-65
2021/05/06 05:04:53;;;;;;;12.63;7.72;;;4.80;99.90;;;;;;5098327;27;20093;-63
2021/05/06 05:12:43;;;;;;;12.82;7.72;;;5.10;99.90;;;;;;5100490;28;20051;-63
2021/05/06 05:20:15;;;;;;;12.23;7.57;;;5.20;99.90;;;;;;5100696;28;20048;-63
2021/05/06 05:25:31;;;;;;;14.40;8.18;;;5.30;99.90;;;;;;5100608;28;20042;-63
2021/05/06 05:27:58;;;;;;;13.88;7.40;;;5.30;99.90;;;;;;5100645;28;20460;-63
2021/05/06 05:30:26;;;;;;;11.80;7.60;;;5.40;99.90;;;;;;5097925;28;20032;-63
2021/05/06 05:32:52;;;;;;;12.93;7.57;;;5.50;99.90;;;;;;5100584;28;20032;-63
2021/05/06 05:38:20;;;;;;;12.30;6.75;;;5.70;99.90;;;;;;5101367;27;20035;-63
2021/05/06 05:54:32;;;;;;;7.72;4.57;;;8.30;99.90;;;;;;5101851;28;20555;-63
2021/05/06 05:54:35;;;;;;;6.75;3.63;;;10.60;99.90;;;;;;5090939;28;20047;-64
2021/05/06 05:57:01;;;;;;;4.78;3.53;;;11.60;99.90;;;;;;5091189;28;20063;-64
2021/05/06 05:59:26;;;;;;;4.85;2.78;;;12.10;99.90;;;;;;5095095;28;20472;-63
2021/05/06 06:01:52;;;;;;;5.40;2.78;;;12.50;99.90;;;;;;5092904;28;20039;-64
2021/05/06 06:04:18;;;;;;;3.78;2.60;;;13.00;99.90;;;;;;5090857;28;20089;-64
2021/05/06 06:06:43;;;;;;;4.70;2.83;;;13.50;99.90;;;;;;5092350;28;20118;-64
2021/05/06 06:09:09;;;;;;;4.80;2.60;;;14.00;99.90;;;;;;5090936;28;20020;-66
2021/05/06 06:11:36;;;;;;;3.08;2.03;;;14.70;99.90;;;;;;5091515;28;20028;-66
2021/05/06 06:14:07;;;;;;;4.13;2.05;;;15.20;99.90;;;;;;5092151;28;20764;-65
2021/05/06 06:16:34;;;;;;;2.80;1.90;;;15.50;99.50;;;;;;5089242;28;20047;-66
2021/05/06 06:19:01;;;;;;;4.32;1.92;;;15.50;99.50;;;;;;5095518;28;20047;-65
2021/05/06 06:24:11;;;;;;;3.08;1.65;;;15.90;96.90;;;;;;5095152;28;20082;-65
2021/05/06 06:26:37;;;;;;;2.78;1.52;;;16.10;96.10;;;;;;5099071;28;20478;-65
2021/05/06 06:29:08;;;;;;;2.08;1.70;;;16.70;94.80;;;;;;5094985;28;20409;-65
2021/05/06 06:31:42;;;;;;;1.20;1.02;;;17.00;91.10;;;;;;5097617;28;20051;-66
2021/05/06 06:34:08;;;;;;;2.30;1.50;;;17.30;91.50;;;;;;5094714;27;20055;-65
2021/05/06 06:36:34;;;;;;;1.85;1.27;;;17.20;88.00;;;;;;5096752;27;20058;-65
2021/05/06 06:39:01;;;;;;;2.25;1.40;;;17.00;90.10;;;;;;5095530;28;20062;-65
2021/05/06 06:41:26;;;;;;;2.05;1.30;;;16.80;91.80;;;;;;5100086;27;20039;-65
2021/05/06 06:43:54;;;;;;;1.55;1.10;;;17.10;90.30;;;;;;5092833;28;20539;-66
2021/05/06 06:46:20;;;;;;;2.70;1.23;;;17.10;85.10;;;;;;5099184;28;20107;-65
2021/05/06 06:48:46;;;;;;;3.72;1.40;;;16.40;86.30;;;;;;5087765;28;20165;-65
2021/05/06 06:51:11;;;;;;;3.53;1.25;;;16.00;90.70;;;;;;5092613;28;20139;-65
2021/05/06 06:53:37;;;;;;;1.67;1.15;;;16.20;91.60;;;;;;5096859;28;20051;-65
2021/05/06 06:56:03;;;;;;;2.28;1.20;;;16.50;92.20;;;;;;5093451;28;20032;-65
2021/05/06 06:58:30;;;;;;;3.97;1.45;;;17.00;90.40;;;;;;5094648;28;20965;-65
2021/05/06 07:00:56;;;;;;;1.95;1.20;;;17.80;84.40;;;;;;5096115;28;20035;-66
2021/05/06 07:03:22;;;;;;;4.85;1.40;;;17.80;87.50;;;;;;5091952;28;20028;-66
2021/05/06 07:05:48;;;;;;;5.20;1.75;;;18.50;84.20;;;;;;5094379;28;20032;-64
2021/05/06 07:08:23;;;;;;;5.07;2.22;;;18.80;77.70;;;;;;5094352;28;20713;-66
2021/05/06 07:10:51;;;;;;;4.22;2.45;;;19.00;76.60;;;;;;5097403;28;20776;-66
2021/05/06 07:13:17;;;;;;;6.63;3.28;;;18.70;74.50;;;;;;5094063;27;20040;-64
2021/05/06 07:15:46;;;;;;;5.15;2.83;;;18.90;71.90;;;;;;5094704;28;20032;-64
2021/05/06 07:18:11;;;;;;;5.17;3.07;;;19.00;73.70;;;;;;5096127;28;20512;-66
2021/05/06 07:20:37;;;;;;;5.30;2.88;;;18.40;72.10;;;;;;5099240;28;20731;-66
2021/05/06 07:23:03;;;;;;;6.50;2.90;;;17.90;73.30;;;;;;5096526;28;20034;-66
2021/05/06 07:25:29;;;;;;;5.00;2.28;;;17.80;78.70;;;;;;5093973;28;20024;-66
2021/05/06 07:27:54;;;;;;;4.90;2.55;;;17.60;78.80;;;;;;5111367;27;20042;-66
2021/05/06 07:30:20;;;;;;;4.35;2.45;;;17.50;78.40;;;;;;5096285;28;20036;-66
2021/05/06 07:32:46;;;;;;;4.03;2.67;;;17.00;81.70;;;;;;5095180;28;20031;-66
2021/05/06 07:35:12;;;;;;;5.25;1.95;;;16.80;82.30;;;;;;5092977;28;20035;-64
2021/05/06 07:37:38;;;;;;;4.68;2.15;;;16.90;84.20;;;;;;5100669;27;20473;-64
2021/05/06 07:40:05;;;;;;;2.78;1.73;;;17.00;81.10;;;;;;5093817;28;20496;-66
2021/05/06 07:42:31;;;;;;;4.60;2.20;;;16.20;78.50;;;;;;5093254;28;20051;-66
2021/05/06 07:44:56;;;;;;;3.42;1.90;;;15.80;83.10;;;;;;5099604;28;20048;-65
2021/05/06 07:47:22;;;;;;;4.03;2.40;;;16.20;83.20;;;;;;5108459;27;20066;-65
2021/05/06 07:49:49;;;;;;;3.17;1.80;;;16.60;85.40;;;;;;5107394;28;20071;-65
2021/05/06 07:52:20;;;;;;;2.60;1.52;;;16.20;80.30;;;;;;5104554;28;20024;-66
2021/05/06 07:54:46;;;;;;;2.97;1.85;;;15.40;83.70;;;;;;5105191;28;20084;-65
2021/05/06 07:57:12;;;;;;;4.35;2.20;;;14.90;88.60;;;;;;5104319;28;20032;-66
2021/05/06 07:59:38;;;;;;;3.40;2.00;;;14.40;89.70;;;;;;5103576;28;20540;-65
2021/05/06 08:02:05;;;;;;;5.50;2.42;;;13.90;93.20;;;;;;5100741;28;20173;-65
2021/05/06 08:04:30;;;;;;;4.85;2.13;;;13.90;93.20;;;;;;5099579;28;20028;-65
2021/05/06 08:06:56;;;;;;;4.28;2.30;;;14.50;92.80;;;;;;5092143;28;20731;-65
2021/05/06 08:09:21;;;;;;;4.78;2.25;;;14.90;92.40;;;;;;5092914;28;20035;-65
2021/05/06 08:11:49;;;;;;;3.03;2.15;;;14.70;91.00;;;;;;5091825;28;20043;-65
2021/05/06 08:14:15;;;;;;;4.90;2.45;;;14.50;93.30;;;;;;5101511;28;20555;-66
2021/05/06 08:16:40;;;;;;;5.03;2.42;;;14.60;90.40;;;;;;5092603;28;20024;-65
2021/05/06 08:19:06;;;;;;;8.27;2.80;;;14.60;92.90;;;;;;5092791;28;20127;-65
2021/05/06 08:21:31;;;;;;;5.90;2.95;;;15.10;92.90;;;;;;5095952;28;20056;-63
2021/05/06 08:23:57;;;;;;;6.60;2.97;;;15.10;92.60;;;;;;5095307;28;20059;-64
2021/05/06 08:26:25;;;;;;;4.15;2.55;;;15.20;93.40;;;;;;5093189;28;20028;-64
2021/05/06 08:28:53;;;;;;;5.82;2.85;;;15.30;91.70;;;;;;5096461;28;20028;-63
2021/05/06 08:31:18;;;;;;;3.67;2.60;;;15.10;90.00;;;;;;5099636;28;20408;-64
2021/05/06 08:33:44;;;;;;;4.78;2.80;;;15.30;90.90;;;;;;5093931;28;20036;-64
2021/05/06 08:36:10;;;;;;;5.07;2.70;;;15.30;90.20;;;;;;5100097;28;20028;-64
2021/05/06 08:38:36;;;;;;;4.32;2.25;;;15.60;91.80;;;;;;5102135;27;20038;-64
2021/05/06 08:41:02;;;;;;;5.88;2.70;;;15.90;86.40;;;;;;5109573;27;20039;-64
2021/05/06 08:43:31;;;;;;;3.60;2.20;;;15.90;83.20;;;;;;5107457;28;20457;-63
2021/05/06 08:45:58;;;;;;;4.45;2.67;;;15.80;83.70;;;;;;5106739;28;20100;-64
2021/05/06 08:48:24;;;;;;;3.65;2.55;;;15.40;82.60;;;;;;5103090;27;20036;-64
2021/05/06 08:50:53;;;;;;;5.57;2.38;;;15.10;85.80;;;;;;5098329;28;20027;-64
2021/05/06 08:53:21;;;;;;;4.30;2.28;;;15.20;84.50;;;;;;5094763;28;20028;-65
2021/05/06 08:55:48;;;;;;;4.80;2.13;;;15.50;83.60;;;;;;5095644;27;20111;-66
2021/05/06 08:58:14;;;;;;;6.72;2.53;;;15.60;84.80;;;;;;5106314;27;20031;-64
2021/05/06 09:00:40;;;;;;;3.78;1.95;;;15.90;79.50;;;;;;5109538;27;20502;-66
2021/05/06 09:03:06;;;;;;;6.15;2.05;;;16.30;76.80;;;;;;5100998;28;20047;-66
2021/05/06 09:05:35;;;;;;;3.53;2.25;;;16.80;73.50;;;;;;5096949;28;20427;-66
2021/05/06 09:08:01;;;;;;;3.05;2.20;;;16.80;70.80;;;;;;5096104;28;20062;-66
2021/05/06 09:10:35;;;;;;;6.22;2.13;;;17.00;72.90;;;;;;5095654;28;20623;-66
2021/05/06 09:13:02;;;;;;;5.18;2.22;;;17.00;71.40;;;;;;5096997;28;20040;-65
2021/05/06 09:15:27;;;;;;;3.95;2.65;;;17.00;72.10;;;;;;5097374;28;20036;-66
2021/05/06 09:17:53;;;;;;;4.55;2.55;;;16.30;72.40;;;;;;5096336;28;20036;-65
2021/05/06 09:20:22;;;;;;;7.55;2.70;;;15.60;75.30;;;;;;5099756;28;20027;-65
2021/05/06 09:22:50;;;;;;;6.03;2.75;;;15.10;77.20;;;;;;5103473;27;20047;-66
2021/05/06 09:25:36;;;;;;;4.82;2.70;;;14.60;80.50;;;;;;5096544;28;20036;-66
2021/05/06 09:28:12;;;;;;;3.83;1.25;;;14.30;78.50;;;;;;5097447;28;20043;-65
2021/05/06 09:30:50;;;;;;;3.13;1.50;;;13.70;76.20;;;;;;5097667;28;20562;-64
2021/05/06 09:33:17;;;;;;;3.72;1.00;;;13.00;77.90;;;;;;5097025;28;20028;-65
2021/05/06 09:35:49;;;;;;;2.97;0.90;;;12.50;78.90;;;;;;5096425;28;20145;-65
2021/05/06 09:38:28;;;;;;;4.53;1.40;;;12.10;77.70;;;;;;5100045;27;20047;-65
2021/05/06 09:40:55;;;;;;;6.75;1.48;;;11.80;80.50;;;;;;5113584;27;20052;-65
2021/05/06 09:43:39;;;;;;;2.38;1.35;;;11.60;84.60;;;;;;5098974;28;20092;-65
2021/05/06 09:46:42;;;;;;;2.60;0.80;;;11.50;83.60;;;;;;5099136;28;20101;-65
2021/05/06 09:49:16;;;;;;;3.47;1.65;;;11.20;84.00;;;;;;5099963;28;20039;-65
2021/05/06 09:51:48;;;;;;;1.35;0.73;;;11.20;85.90;;;;;;5099098;28;20035;-65
2021/05/06 09:54:19;;;;;;;7.18;1.50;;;10.90;90.50;;;;;;5098740;28;20115;-65
2021/05/06 09:56:45;;;;;;;4.55;1.25;;;10.70;91.50;;;;;;5091265;28;20040;-65
2021/05/06 09:59:22;;;;;;;3.25;1.40;;;10.60;92.10;;;;;;5094559;27;20430;-64
2021/05/06 10:01:47;;;;;;;5.13;1.40;;;10.50;93.30;;;;;;5103614;28;20134;-64
2021/05/06 10:04:25;;;;;;;3.33;1.30;;;10.40;95.80;;;;;;5103919;27;20588;-65
2021/05/06 10:07:13;;;;;;;10.73;2.50;;;10.20;99.90;;;;;;5108482;27;20027;-66
2021/05/06 10:10:11;;;;;;;5.00;2.20;;;9.70;99.90;;;;;;5108551;28;20043;-67
2021/05/06 10:12:38;;;;;;;5.05;2.38;;;9.10;99.90;;;;;;5074675;28;20551;-66
2021/05/06 10:15:13;;;;;;;5.65;2.20;;;8.70;99.90;;;;;;5100452;28;20036;-66
2021/05/06 10:17:39;;;;;;;3.75;1.90;;;8.30;99.90;;;;;;5097389;27;20080;-66
2021/05/06 10:20:06;;;;;;;9.15;2.72;;;8.00;99.90;;;;;;5105126;27;20025;-64
2021/05/06 10:22:32;;;;;;;6.82;2.30;;;7.80;99.90;;;;;;5112047;27;20438;-64
2021/05/06 10:25:02;;;;;;;7.38;2.72;;;7.70;99.90;;;;;;5102581;27;20032;-66
2021/05/06 10:27:28;;;;;;;14.90;6.43;;;7.60;99.90;;;;;;5102921;28;20488;-65
2021/05/06 10:29:57;;;;;;;5.95;2.95;;;7.50;99.90;;;;;;5107154;28;20030;-63
2021/05/06 10:32:28;;;;;;;8.93;3.05;;;7.50;99.90;;;;;;5106737;28;20043;-65
2021/05/06 10:34:55;;;;;;;7.32;2.47;;;7.50;99.90;;;;;;5105937;28;20032;-65
2021/05/06 10:37:30;;;;;;;4.55;2.35;;;7.50;99.90;;;;;;5104506;27;20164;-65
2021/05/06 10:39:56;;;;;;;5.60;2.30;;;7.50;99.90;;;;;;5104762;28;20430;-65
2021/05/06 10:42:29;;;;;;;4.30;2.65;;;7.40;99.90;;;;;;5094239;28;20024;-65
2021/05/06 10:45:00;;;;;;;6.28;3.22;;;7.40;99.90;;;;;;5095645;28;20123;-65
2021/05/06 10:47:38;;;;;;;4.43;2.70;;;7.40;99.90;;;;;;5091462;28;20029;-65
2021/05/06 10:50:08;;;;;;;5.75;3.03;;;7.50;99.90;;;;;;5107823;27;20035;-64
2021/05/06 10:52:45;;;;;;;5.53;2.10;;;7.60;99.90;;;;;;5106902;27;20028;-65
2021/05/06 10:55:13;;;;;;;7.13;3.13;;;7.70;99.90;;;;;;5105586;28;20044;-65
2021/05/06 10:57:39;;;;;;;5.70;3.30;;;7.80;99.90;;;;;;5102680;27;20035;-65
2021/05/06 11:00:24;;;;;;;5.80;2.70;;;8.00;99.90;;;;;;5106031;27;20032;-65
2021/05/06 11:02:54;;;;;;;5.15;2.20;;;8.20;99.90;;;;;;5097349;28;20115;-66
2021/05/06 11:05:29;;;;;;;3.45;1.63;;;8.40;99.90;;;;;;5094891;28;20032;-65
2021/05/06 11:08:03;;;;;;;3.80;1.67;;;8.60;99.90;;;;;;5094320;28;20051;-66
2021/05/06 11:10:31;;;;;;;3.33;1.80;;;8.80;99.90;;;;;;5094838;28;20028;-63
2021/05/06 11:12:59;;;;;;;3.72;1.80;;;8.90;99.90;;;;;;5094679;28;20040;-65
2021/05/06 11:15:27;;;;;;;5.43;2.00;;;9.10;99.90;;;;;;5095974;28;20028;-65
2021/05/06 11:17:55;;;;;;;5.85;2.55;;;9.30;99.90;;;;;;5095245;28;20128;-65
2021/05/06 11:20:23;;;;;;;2.67;1.63;;;9.40;99.90;;;;;;5094977;27;20114;-65
2021/05/06 11:22:57;;;;;;;5.15;2.03;;;9.60;99.90;;;;;;5098765;27;20160;-65
2021/05/06 11:25:47;;;;;;;1.88;1.40;;;9.60;99.90;;;;;;5089771;28;20031;-63
2021/05/06 11:28:12;;;;;;;4.35;1.40;;;9.60;99.90;;;;;;5093898;28;20105;-63
2021/05/06 11:30:43;;;;;;;2.13;1.35;;;9.60;99.90;;;;;;5095633;28;20040;-65
2021/05/06 11:33:20;;;;;;;3.10;1.45;;;9.70;99.90;;;;;;5097638;28;20139;-65
2021/05/06 11:36:14;;;;;;;5.50;1.80;;;9.70;99.90;;;;;;5096598;28;20519;-65
2021/05/06 11:38:40;;;;;;;6.50;1.48;;;9.70;99.90;;;;;;5094493;28;20052;-66
2021/05/06 11:41:29;;;;;;;3.17;1.27;;;9.60;99.90;;;;;;5094973;28;20032;-63
2021/05/06 11:44:00;;;;;;;4.20;1.23;;;9.40;99.90;;;;;;5096721;28;20032;-66
2021/05/06 11:46:35;;;;;;;1.67;1.15;;;9.20;99.90;;;;;;5088158;28;20032;-65
2021/05/06 11:49:06;;;;;;;3.80;1.45;;;9.10;99.90;;;;;;5096241;28;20035;-65
2021/05/06 11:51:37;;;;;;;2.65;1.17;;;9.20;99.90;;;;;;5093345;28;20476;-65
2021/05/06 11:54:10;;;;;;;;;;;9.20;99.90;;;;;;5094843;28;20065;-66
2021/05/06 11:56:39;;;;;;;2.80;1.40;;;9.20;99.90;;;;;;5091669;28;19912;-65
2021/05/06 11:59:08;;;;;;;7.93;1.63;;;9.20;99.90;;;;;;5089440;28;20028;-65
2021/05/06 12:01:34;;;;;;;4.03;1.42;;;9.30;99.90;;;;;;5095403;28;20622;-66
2021/05/06 12:04:00;;;;;;;4.57;1.52;;;9.40;99.90;;;;;;5093386;28;20039;-66
2021/05/06 12:06:27;;;;;;;2.05;1.55;;;9.70;99.90;;;;;;5095735;28;20036;-66
2021/05/06 12:08:53;;;;;;;3.13;1.50;;;9.90;99.90;;;;;;5094173;28;20122;-66
2021/05/06 12:11:18;;;;;;;2.95;1.42;;;9.90;99.90;;;;;;5096654;28;20119;-64
2021/05/06 12:13:44;;;;;;;4.10;1.42;;;9.80;99.90;;;;;;5097866;28;20043;-64
2021/05/06 12:16:11;;;;;;;3.15;1.40;;;9.90;99.90;;;;;;5096637;28;20043;-66
2021/05/06 12:18:37;;;;;;;3.30;1.50;;;9.80;99.90;;;;;;5096468;28;20085;-66
2021/05/06 12:21:05;;;;;;;2.35;1.45;;;9.70;99.90;;;;;;5101054;27;20039;-65
2021/05/06 12:23:31;;;;;;;3.17;1.40;;;9.70;99.90;;;;;;5101388;28;20404;-66
2021/05/06 12:25:57;;;;;;;4.00;1.58;;;9.60;99.90;;;;;;5104269;28;20036;-64
2021/05/06 12:28:23;;;;;;;4.38;2.13;;;9.50;99.90;;;;;;5098780;28;20747;-64
2021/05/06 12:30:48;;;;;;;5.13;1.95;;;9.60;99.90;;;;;;5095124;28;20043;-64
2021/05/06 12:33:28;;;;;;;4.20;1.50;;;9.60;99.90;;;;;;5101825;28;20047;-64
2021/05/06 12:35:54;;;;;;;3.80;1.77;;;9.60;99.90;;;;;;5100141;27;20030;-64
2021/05/06 12:38:19;;;;;;;3.72;1.63;;;9.60;99.90;;;;;;5097941;27;20035;-64
2021/05/06 12:40:46;;;;;;;2.60;1.55;;;9.70;99.90;;;;;;5101220;28;20054;-64
2021/05/06 12:43:29;;;;;;;3.50;1.58;;;9.70;99.90;;;;;;5100054;28;20035;-64
2021/05/06 12:46:10;;;;;;;5.43;1.58;;;10.10;99.90;;;;;;5098131;28;20032;-65
2021/05/06 12:48:51;;;;;;;4.00;1.77;;;10.30;99.90;;;;;;5100825;27;20031;-64
2021/05/06 12:51:17;;;;;;;3.15;1.58;;;10.60;99.90;;;;;;5098933;28;20035;-65
2021/05/06 12:54:06;;;;;;;2.45;1.52;;;11.00;99.90;;;;;;5099674;28;20425;-64
2021/05/06 12:56:38;;;;;;;3.60;2.08;;;11.20;99.90;;;;;;5092849;28;20050;-64
2021/05/06 12:59:29;;;;;;;2.55;1.48;;;11.40;99.90;;;;;;5096818;27;20032;-64
2021/05/06 13:02:08;;;;;;;2.97;1.50;;;11.40;99.90;;;;;;5095267;28;20039;-64
2021/05/06 13:04:54;;;;;;;8.13;1.75;;;11.50;99.90;;;;;;5094317;28;20118;-64
2021/05/06 13:07:20;;;;;;;4.68;1.77;;;11.50;99.90;;;;;;5097130;28;20629;-64
2021/05/06 13:09:50;;;;;;;3.13;1.58;;;11.50;99.90;;;;;;5094608;27;20031;-64
2021/05/06 13:12:25;;;;;;;4.50;1.67;;;11.40;99.90;;;;;;5098809;28;20032;-63
2021/05/06 13:15:00;;;;;;;2.67;1.27;;;11.40;99.90;;;;;;5098796;28;20036;-64
2021/05/06 13:17:27;;;;;;;2.65;1.40;;;11.40;99.90;;;;;;5098472;28;20034;-64
2021/05/06 13:19:54;;;;;;;1.88;1.20;;;11.30;99.90;;;;;;5096310;28;20040;-64
2021/05/06 13:22:21;;;;;;;2.05;1.23;;;11.30;99.90;;;;;;5102214;27;20031;-64
2021/05/06 13:24:49;;;;;;;3.15;1.58;;;11.30;99.90;;;;;;5096415;28;20504;-64
2021/05/06 13:27:25;;;;;;;2.53;1.30;;;11.30;99.90;;;;;;5098325;28;20036;-65
2021/05/06 13:30:02;;;;;;;6.28;2.10;;;11.40;99.90;;;;;;5096989;28;20089;-65
2021/05/06 13:32:36;;;;;;;4.30;1.70;;;11.60;99.90;;;;;;5096791;28;20035;-65
2021/05/06 13:35:02;;;;;;;5.07;1.65;;;11.80;99.90;;;;;;5098061;28;20043;-65
2021/05/06 13:37:41;;;;;;;3.17;1.50;;;11.80;99.90;;;;;;5095380;27;20265;-66
2021/05/06 13:40:07;;;;;;;2.35;1.20;;;11.80;99.90;;;;;;5096987;27;20073;-65
2021/05/06 13:42:33;;;;;;;3.28;1.35;;;11.90;99.90;;;;;;5096988;28;20291;-65
2021/05/06 13:44:59;;;;;;;2.60;1.42;;;12.00;99.90;;;;;;5103067;28;20043;-65
2021/05/06 13:47:25;;;;;;;2.17;1.27;;;12.00;99.90;;;;;;5095321;27;20039;-65
2021/05/06 13:49:51;;;;;;;2.08;1.45;;;11.90;99.90;;;;;;5097760;28;20028;-65
2021/05/06 13:52:17;;;;;;;3.83;1.60;;;11.90;99.90;;;;;;5092834;27;20030;-65
2021/05/06 13:54:43;;;;;;;2.90;1.65;;;11.90;99.90;;;;;;5092183;28;20122;-65
2021/05/06 13:57:09;;;;;;;4.97;1.70;;;11.80;99.90;;;;;;5093514;28;20107;-65
2021/05/06 13:59:34;;;;;;;4.03;1.73;;;11.90;99.90;;;;;;5095189;28;20744;-65
2021/05/06 14:02:00;;;;;;;4.78;1.80;;;11.90;99.90;;;;;;5096097;28;21018;-65
2021/05/06 14:04:25;;;;;;;1.92;0.95;;;12.00;99.90;;;;;;5094096;28;20089;-65
2021/05/06 14:06:52;;;;;;;3.90;1.30;;;12.10;99.90;;;;;;5098911;28;20396;-66
2021/05/06 14:09:19;;;;;;;2.22;1.08;;;12.10;99.90;;;;;;5098053;28;20235;-65
2021/05/06 14:11:47;;;;;;;4.10;1.38;;;12.00;99.90;;;;;;5103877;27;20035;-65
2021/05/06 14:14:13;;;;;;;3.70;1.17;;;12.20;99.90;;;;;;5098813;28;20044;-65
2021/05/06 14:16:40;;;;;;;3.90;1.50;;;12.30;99.90;;;;;;5098254;28;20434;-65
2021/05/06 14:19:07;;;;;;;4.00;1.33;;;12.20;99.90;;;;;;5099034;27;20401;-65
2021/05/06 14:21:37;;;;;;;1.92;1.17;;;12.40;99.90;;;;;;5094440;28;20035;-65
2021/05/06 14:24:03;;;;;;;6.95;1.40;;;12.50;99.80;;;;;;5096237;28;20039;-65
2021/05/06 14:26:28;;;;;;;4.60;1.13;;;12.70;99.90;;;;;;5097622;28;20039;-65
2021/05/06 14:28:54;;;;;;;2.65;1.60;;;12.70;98.20;;;;;;5098856;27;20035;-65
2021/05/06 14:31:20;;;;;;;4.35;1.45;;;12.80;99.40;;;;;;5097054;28;20093;-65
2021/05/06 14:33:45;;;;;;;3.05;1.23;;;12.90;97.90;;;;;;5092566;28;20032;-65
2021/05/06 14:36:12;;;;;;;4.10;1.60;;;13.00;97.20;;;;;;5097547;28;20127;-65
2021/05/06 14:38:41;;;;;;;3.30;1.25;;;13.00;96.10;;;;;;5093687;28;20039;-65
2021/05/06 14:41:08;;;;;;;6.55;1.52;;;12.90;97.20;;;;;;5097854;28;20040;-65
2021/05/06 14:43:34;;;;;;;4.30;1.42;;;12.80;96.30;;;;;;5099155;28;20108;-65
2021/05/06 14:46:00;;;;;;;4.35;1.73;;;12.60;96.90;;;;;;5098473;27;20121;-65
2021/05/06 14:48:26;;;;;;;5.22;1.38;;;12.60;97.70;;;;;;5101413;28;20036;-64
2021/05/06 14:50:52;;;;;;;7.55;1.75;;;12.60;99.00;;;;;;5095413;28;20032;-64
2021/05/06 14:53:17;;;;;;;2.88;1.20;;;12.60;96.20;;;;;;5100947;27;20073;-64
2021/05/06 14:55:43;;;;;;;2.60;1.23;;;12.60;97.70;;;;;;5095136;28;20173;-64
2021/05/06 14:58:09;;;;;;;3.33;1.50;;;12.60;97.30;;;;;;5097521;28;20050;-64
2021/05/06 15:00:35;;;;;;;4.60;1.25;;;12.60;96.20;;;;;;5110353;27;20036;-65
2021/05/06 15:03:02;;;;;;;3.45;1.20;;;12.80;96.80;;;;;;5105392;27;20038;-65
2021/05/06 15:05:28;;;;;;;4.00;1.40;;;12.80;95.90;;;;;;5103884;27;20023;-64
2021/05/06 15:07:54;;;;;;;1.98;0.85;;;12.90;96.10;;;;;;5103259;28;20103;-64
2021/05/06 15:10:20;;;;;;;3.75;1.27;;;12.90;95.70;;;;;;5099389;28;20445;-65
2021/05/06 15:12:46;;;;;;;3.63;1.40;;;12.80;96.50;;;;;;5105063;28;20091;-65
2021/05/06 15:15:13;;;;;;;4.85;1.65;;;12.90;95.40;;;;;;5105502;28;20028;-65
2021/05/06 15:17:39;;;;;;;3.33;1.40;;;12.70;96.40;;;;;;5102599;28;20027;-65
2021/05/06 15:20:06;;;;;;;4.22;1.27;;;12.70;97.60;;;;;;5108547;27;20100;-65
2021/05/06 15:22:32;;;;;;;3.45;1.20;;;12.60;96.60;;;;;;5102648;28;20032;-65
2021/05/06 15:24:58;;;;;;;3.40;1.45;;;12.50;97.70;;;;;;5100791;28;20035;-64
2021/05/06 15:27:23;;;;;;;3.90;1.20;;;12.30;98.30;;;;;;5100651;28;20081;-65
2021/05/06 15:29:49;;;;;;;2.47;1.13;;;12.10;97.50;;;;;;5103101;28;20031;-65
2021/05/06 15:32:15;;;;;;;4.80;1.40;;;12.00;98.10;;;;;;5102819;28;20028;-64
2021/05/06 15:34:41;;;;;;;5.47;1.77;;;11.80;99.90;;;;;;5103883;27;20039;-64
2021/05/06 15:37:07;;;;;;;4.90;1.95;;;11.50;99.90;;;;;;5104462;28;20032;-64
2021/05/06 15:39:37;;;;;;;6.03;2.40;;;11.30;99.90;;;;;;5104432;28;20035;-64
2021/05/06 15:42:03;;;;;;;4.55;1.70;;;11.00;99.90;;;;;;5106049;28;20043;-64
2021/05/06 15:44:28;;;;;;;6.40;2.28;;;10.60;99.90;;;;;;5105499;27;20368;-64
2021/05/06 15:46:58;;;;;;;7.57;1.52;;;10.40;99.90;;;;;;5103866;28;20142;-64
2021/05/06 15:49:26;;;;;;;7.25;2.05;;;10.10;99.90;;;;;;5103297;27;20476;-64
2021/05/06 15:51:51;;;;;;;4.63;2.50;;;9.90;99.90;;;;;;5101868;28;20036;-64
2021/05/06 15:54:17;;;;;;;4.15;2.58;;;9.80;99.90;;;;;;5104617;28;20106;-64
2021/05/06 15:56:42;;;;;;;3.45;1.60;;;9.70;99.90;;;;;;5105259;28;20034;-64
2021/05/06 15:59:08;;;;;;;7.55;2.42;;;9.50;99.90;;;;;;5103848;27;20047;-64
2021/05/06 16:01:34;;;;;;;4.85;2.38;;;9.50;99.90;;;;;;5105666;28;20067;-64
2021/05/06 16:04:05;;;;;;;4.25;2.38;;;9.40;99.90;;;;;;5107286;27;20050;-65
2021/05/06 16:06:31;;;;;;;3.33;2.00;;;9.30;99.90;;;;;;5101335;28;20119;-64